sensor_id;sensor_type;location;lat;lon;timestamp;pressure;altitude;pressure_sealevel;temperature;humidity
13312;BME280;34033;48.672;9.376;2023-04-25T04:13:32;97859.63;;;11.68;69.38
13312;BME280;34033;48.672;9.376;2023-04-25T04:16:03;97856.81;;;11.68;68.13
13312;BME280;34033;48.672;9.376;2023-04-25T04:18:46;97852.75;;;11.77;69.15
13312;BME280;34033;48.672;9.376;2023-04-25T04:21:26;97853.97;;;11.76;67.25
13312;BME280;34033;48.672;9.376;2023-04-25T04:24:03;97865.97;;;11.69;66.83
13312;BME280;34033;48.672;9.376;2023-04-25T04:26:51;97867.22;;;11.64;66.35
13312;BME280;34033;48.672;9.376;2023-04-25T04:29:20;97862.78;;;11.70;65.59
13312;BME280;34033;48.672;9.376;2023-04-25T04:31:54;97869.59;;;11.69;65.61
13312;BME280;34033;48.672;9.376;2023-04-25T04:34:19;97876.81;;;11.63;65.94
13312;BME280;34033;48.672;9.376;2023-04-25T04:36:52;97867.59;;;11.70;66.64
13312;BME280;34033;48.672;9.376;2023-04-25T04:39:20;97875.56;;;11.71;65.44
13312;BME280;34033;48.672;9.376;2023-04-25T04:41:53;97876.81;;;11.74;65.27
13312;BME280;34033;48.672;9.376;2023-04-25T04:44:48;97867.63;;;11.66;64.94
13312;BME280;34033;48.672;9.376;2023-04-25T04:47:17;97877.50;;;11.85;66.92
13312;BME280;34033;48.672;9.376;2023-04-25T04:49:47;97865.97;;;11.76;65.45
13312;BME280;34033;48.672;9.376;2023-04-25T04:52:30;97871.56;;;11.80;64.61
13312;BME280;34033;48.672;9.376;2023-04-25T04:55:07;97881.97;;;11.79;65.54
13312;BME280;34033;48.672;9.376;2023-04-25T04:57:45;97875.53;;;11.82;64.84
13312;BME280;34033;48.672;9.376;2023-04-25T05:00:19;97878.72;;;11.81;64.58
13312;BME280;34033;48.672;9.376;2023-04-25T05:02:57;97888.72;;;11.85;64.06
13312;BME280;34033;48.672;9.376;2023-04-25T05:05:50;97897.16;;;11.75;63.02
13312;BME280;34033;48.672;9.376;2023-04-25T05:08:24;97885.94;;;11.82;65.42
13312;BME280;34033;48.672;9.376;2023-04-25T05:10:49;97890.91;;;11.56;63.93
13312;BME280;34033;48.672;9.376;2023-04-25T05:13:17;97883.94;;;11.16;64.76
13312;BME280;34033;48.672;9.376;2023-04-25T05:16:09;97884.69;;;11.20;65.89
13312;BME280;34033;48.672;9.376;2023-04-25T05:18:38;97886.75;;;11.13;65.74
13312;BME280;34033;48.672;9.376;2023-04-25T05:21:12;97887.63;;;10.96;67.01
13312;BME280;34033;48.672;9.376;2023-04-25T05:23:37;97882.38;;;11.05;66.88
13312;BME280;34033;48.672;9.376;2023-04-25T05:26:05;97877.69;;;10.91;66.52
13312;BME280;34033;48.672;9.376;2023-04-25T05:28:41;97875.59;;;11.06;66.28
13312;BME280;34033;48.672;9.376;2023-04-25T05:31:12;97879.53;;;11.15;65.32
13312;BME280;34033;48.672;9.376;2023-04-25T05:33:55;97885.53;;;11.17;65.14
13312;BME280;34033;48.672;9.376;2023-04-25T05:36:32;97891.13;;;11.14;63.92
13312;BME280;34033;48.672;9.376;2023-04-25T05:38:58;97895.63;;;10.94;64.07
13312;BME280;34033;48.672;9.376;2023-04-25T05:41:29;97894.38;;;11.05;64.64
13312;BME280;34033;48.672;9.376;2023-04-25T05:43:55;97903.88;;;11.22;64.54
13312;BME280;34033;48.672;9.376;2023-04-25T05:46:28;97893.13;;;11.17;65.00
13312;BME280;34033;48.672;9.376;2023-04-25T05:49:05;97894.22;;;11.34;65.30
13312;BME280;34033;48.672;9.376;2023-04-25T05:51:30;97898.97;;;11.44;63.77
13312;BME280;34033;48.672;9.376;2023-04-25T05:53:56;97902.09;;;11.56;64.14
13312;BME280;34033;48.672;9.376;2023-04-25T05:56:27;97894.47;;;11.60;64.24
13312;BME280;34033;48.672;9.376;2023-04-25T05:59:17;97900.47;;;11.59;64.23
13312;BME280;34033;48.672;9.376;2023-04-25T06:01:45;97897.44;;;11.36;64.13
13312;BME280;34033;48.672;9.376;2023-04-25T06:04:21;97897.81;;;11.34;65.55
13312;BME280;34033;48.672;9.376;2023-04-25T06:06:49;97902.13;;;11.49;65.23
13312;BME280;34033;48.672;9.376;2023-04-25T06:09:22;97895.75;;;11.45;65.36
13312;BME280;34033;48.672;9.376;2023-04-25T06:11:58;97901.72;;;11.47;65.76
13312;BME280;34033;48.672;9.376;2023-04-25T06:14:35;97906.00;;;11.66;66.08
13312;BME280;34033;48.672;9.376;2023-04-25T06:17:15;97906.75;;;11.77;66.31
13312;BME280;34033;48.672;9.376;2023-04-25T06:19:49;97910.81;;;11.65;67.29
13312;BME280;34033;48.672;9.376;2023-04-25T06:22:20;97898.63;;;11.35;67.41
13312;BME280;34033;48.672;9.376;2023-04-25T06:24:49;97897.75;;;11.41;67.90
13312;BME280;34033;48.672;9.376;2023-04-25T06:27:20;97888.91;;;11.53;67.66
13312;BME280;34033;48.672;9.376;2023-04-25T06:30:00;97890.72;;;11.81;67.17
13312;BME280;34033;48.672;9.376;2023-04-25T06:32:41;97885.69;;;12.10;65.46
13312;BME280;34033;48.672;9.376;2023-04-25T06:35:28;97884.22;;;12.39;65.69
13312;BME280;34033;48.672;9.376;2023-04-25T06:37:59;97887.53;;;12.65;63.97
13312;BME280;34033;48.672;9.376;2023-04-25T06:40:33;97885.13;;;12.67;62.63
13312;BME280;34033;48.672;9.376;2023-04-25T06:43:08;97878.31;;;12.64;61.49
13312;BME280;34033;48.672;9.376;2023-04-25T06:45:39;97872.38;;;12.62;62.44
13312;BME280;34033;48.672;9.376;2023-04-25T06:48:07;97869.63;;;12.55;63.04
13312;BME280;34033;48.672;9.376;2023-04-25T06:50:37;97882.22;;;12.36;62.57
13312;BME280;34033;48.672;9.376;2023-04-25T06:53:05;97880.28;;;12.30;62.20
13312;BME280;34033;48.672;9.376;2023-04-25T06:55:36;97884.34;;;12.25;62.03
13312;BME280;34033;48.672;9.376;2023-04-25T07:01:57;97885.97;;;11.75;61.69
13312;BME280;34033;48.672;9.376;2023-04-25T07:08:36;97889.84;;;11.91;61.98
13312;BME280;34033;48.672;9.376;2023-04-25T07:14:52;97888.19;;;11.97;62.15
13312;BME280;34033;48.672;9.376;2023-04-25T07:17:32;97896.91;;;12.10;63.24
13312;BME280;34033;48.672;9.376;2023-04-25T07:23:40;97888.00;;;12.19;63.46
13312;BME280;34033;48.672;9.376;2023-04-25T07:26:29;97898.72;;;11.83;62.57
13312;BME280;34033;48.672;9.376;2023-04-25T07:29:09;97900.81;;;11.68;64.73
13312;BME280;34033;48.672;9.376;2023-04-25T07:31:54;97899.56;;;11.73;64.75
13312;BME280;34033;48.672;9.376;2023-04-25T07:37:47;97908.72;;;11.80;64.59
13312;BME280;34033;48.672;9.376;2023-04-25T07:41:03;97909.16;;;11.75;65.63
13312;BME280;34033;48.672;9.376;2023-04-25T07:43:48;97909.19;;;11.71;64.65
13312;BME280;34033;48.672;9.376;2023-04-25T07:46:39;97922.78;;;11.69;64.99
13312;BME280;34033;48.672;9.376;2023-04-25T07:49:40;97926.69;;;11.86;65.43
13312;BME280;34033;48.672;9.376;2023-04-25T07:52:23;97930.28;;;11.90;65.35
13312;BME280;34033;48.672;9.376;2023-04-25T07:58:11;97933.03;;;11.94;65.35
13312;BME280;34033;48.672;9.376;2023-04-25T08:04:53;97936.63;;;11.98;65.66
13312;BME280;34033;48.672;9.376;2023-04-25T08:11:15;97953.41;;;11.32;65.87
13312;BME280;34033;48.672;9.376;2023-04-25T08:14:03;97955.06;;;11.15;66.46
13312;BME280;34033;48.672;9.376;2023-04-25T08:16:52;97963.00;;;11.31;67.81
13312;BME280;34033;48.672;9.376;2023-04-25T08:20:02;97967.41;;;11.25;66.93
13312;BME280;34033;48.672;9.376;2023-04-25T08:26:02;97980.19;;;11.33;67.57
13312;BME280;34033;48.672;9.376;2023-04-25T08:28:28;97976.56;;;11.36;67.48
13312;BME280;34033;48.672;9.376;2023-04-25T08:31:22;97983.81;;;11.30;67.87
13312;BME280;34033;48.672;9.376;2023-04-25T08:33:50;97992.56;;;11.36;68.25
13312;BME280;34033;48.672;9.376;2023-04-25T08:36:51;97990.13;;;11.41;68.93
13312;BME280;34033;48.672;9.376;2023-04-25T08:40:08;97995.72;;;11.45;68.96
13312;BME280;34033;48.672;9.376;2023-04-25T08:43:09;97988.78;;;11.70;69.25
13312;BME280;34033;48.672;9.376;2023-04-25T08:49:12;98009.81;;;12.07;68.84
13312;BME280;34033;48.672;9.376;2023-04-25T08:51:56;98009.88;;;11.93;67.30
13312;BME280;34033;48.672;9.376;2023-04-25T09:01:08;98017.72;;;12.16;67.99
13312;BME280;34033;48.672;9.376;2023-04-25T09:07:46;98026.94;;;12.16;66.33
13312;BME280;34033;48.672;9.376;2023-04-25T09:10:32;98025.69;;;12.21;67.05
13312;BME280;34033;48.672;9.376;2023-04-25T09:13:33;98031.38;;;12.10;68.74
13312;BME280;34033;48.672;9.376;2023-04-25T09:16:33;98033.03;;;12.04;70.35
13312;BME280;34033;48.672;9.376;2023-04-25T09:23:11;98048.25;;;11.99;71.85
13312;BME280;34033;48.672;9.376;2023-04-25T09:25:56;98047.84;;;11.97;70.92
13312;BME280;34033;48.672;9.376;2023-04-25T09:28:32;98047.53;;;11.88;70.28
13312;BME280;34033;48.672;9.376;2023-04-25T09:34:09;98053.53;;;11.87;72.08
13312;BME280;34033;48.672;9.376;2023-04-25T09:46:25;98067.06;;;11.99;71.57
13312;BME280;34033;48.672;9.376;2023-04-25T09:48:55;98080.22;;;12.09;69.87
13312;BME280;34033;48.672;9.376;2023-04-25T09:51:53;98081.41;;;12.08;70.64
13312;BME280;34033;48.672;9.376;2023-04-25T09:54:46;98081.16;;;11.85;71.06
13312;BME280;34033;48.672;9.376;2023-04-25T10:00:56;98089.97;;;11.73;71.80
13312;BME280;34033;48.672;9.376;2023-04-25T10:04:03;98086.44;;;11.54;70.88
13312;BME280;34033;48.672;9.376;2023-04-25T10:06:59;98095.25;;;11.56;71.80
13312;BME280;34033;48.672;9.376;2023-04-25T10:10:29;98100.81;;;11.60;71.56
13312;BME280;34033;48.672;9.376;2023-04-25T10:13:06;98108.53;;;11.17;68.76
13312;BME280;34033;48.672;9.376;2023-04-25T10:15:41;98105.38;;;10.65;68.31
13312;BME280;34033;48.672;9.376;2023-04-25T10:18:31;98119.69;;;10.18;69.11
13312;BME280;34033;48.672;9.376;2023-04-25T10:21:28;98122.09;;;10.23;71.87
13312;BME280;34033;48.672;9.376;2023-04-25T10:24:12;98122.47;;;10.18;72.06
13312;BME280;34033;48.672;9.376;2023-04-25T10:26:56;98131.59;;;10.11;72.50
13312;BME280;34033;48.672;9.376;2023-04-25T10:29:34;98132.31;;;9.83;73.42
13312;BME280;34033;48.672;9.376;2023-04-25T10:35:33;98131.63;;;10.08;75.74
13312;BME280;34033;48.672;9.376;2023-04-25T10:38:14;98134.84;;;10.17;75.32
13312;BME280;34033;48.672;9.376;2023-04-25T10:41:13;98141.25;;;10.24;74.94
13312;BME280;34033;48.672;9.376;2023-04-25T10:44:34;98146.44;;;10.26;74.97
13312;BME280;34033;48.672;9.376;2023-04-25T10:47:17;98149.91;;;9.98;74.88
13312;BME280;34033;48.672;9.376;2023-04-25T10:50:46;98155.16;;;10.14;75.24
13312;BME280;34033;48.672;9.376;2023-04-25T10:54:04;98162.72;;;10.02;74.55
13312;BME280;34033;48.672;9.376;2023-04-25T10:56:48;98167.84;;;9.93;74.30
13312;BME280;34033;48.672;9.376;2023-04-25T10:59:27;98171.50;;;10.08;73.08
13312;BME280;34033;48.672;9.376;2023-04-25T11:02:17;98173.47;;;10.04;71.22
13312;BME280;34033;48.672;9.376;2023-04-25T11:08:03;98179.44;;;9.95;71.70
13312;BME280;34033;48.672;9.376;2023-04-25T11:10:41;98181.00;;;9.89;71.19
13312;BME280;34033;48.672;9.376;2023-04-25T11:16:38;98177.56;;;10.21;70.49
13312;BME280;34033;48.672;9.376;2023-04-25T11:19:58;98183.06;;;10.10;71.64
13312;BME280;34033;48.672;9.376;2023-04-25T11:25:51;98189.19;;;10.48;70.83
13312;BME280;34033;48.672;9.376;2023-04-25T11:28:29;98185.25;;;10.66;71.78
13312;BME280;34033;48.672;9.376;2023-04-25T11:34:11;98194.44;;;10.63;71.53
13312;BME280;34033;48.672;9.376;2023-04-25T11:36:52;98189.25;;;10.72;71.73
13312;BME280;34033;48.672;9.376;2023-04-25T11:39:29;98198.78;;;10.47;70.94
13312;BME280;34033;48.672;9.376;2023-04-25T11:42:06;98201.19;;;10.59;72.33
13312;BME280;34033;48.672;9.376;2023-04-25T11:45:10;98211.56;;;10.51;71.77
13312;BME280;34033;48.672;9.376;2023-04-25T11:48:01;98214.28;;;10.19;73.36
13312;BME280;34033;48.672;9.376;2023-04-25T11:50:38;98221.66;;;9.83;74.00
13312;BME280;34033;48.672;9.376;2023-04-25T11:56:25;98224.66;;;10.22;76.06
13312;BME280;34033;48.672;9.376;2023-04-25T12:02:23;98233.53;;;10.49;70.57
13312;BME280;34033;48.672;9.376;2023-04-25T12:04:51;98239.56;;;10.62;70.88
13312;BME280;34033;48.672;9.376;2023-04-25T12:07:51;98233.13;;;10.54;70.12
13312;BME280;34033;48.672;9.376;2023-04-25T12:10:49;98232.34;;;10.47;70.17
13312;BME280;34033;48.672;9.376;2023-04-25T12:13:31;98237.94;;;10.64;70.65
13312;BME280;34033;48.672;9.376;2023-04-25T12:16:39;98235.59;;;10.87;70.51
13312;BME280;34033;48.672;9.376;2023-04-25T12:19:31;98241.22;;;10.98;69.62
13312;BME280;34033;48.672;9.376;2023-04-25T12:22:40;98248.81;;;11.26;69.24
13312;BME280;34033;48.672;9.376;2023-04-25T12:28:45;98252.41;;;11.65;66.74
13312;BME280;34033;48.672;9.376;2023-04-25T12:31:28;98255.63;;;11.78;66.31
13312;BME280;34033;48.672;9.376;2023-04-25T12:34:12;98249.59;;;11.87;66.07
13312;BME280;34033;48.672;9.376;2023-04-25T12:36:58;98249.94;;;12.10;67.36
13312;BME280;34033;48.672;9.376;2023-04-25T12:39:46;98251.88;;;12.20;66.21
13312;BME280;34033;48.672;9.376;2023-04-25T12:42:33;98254.66;;;12.34;65.12
13312;BME280;34033;48.672;9.376;2023-04-25T12:45:58;98259.47;;;12.34;64.14
13312;BME280;34033;48.672;9.376;2023-04-25T12:54:29;98267.13;;;12.16;61.97
13312;BME280;34033;48.672;9.376;2023-04-25T13:02:53;98272.16;;;12.60;62.58
13312;BME280;34033;48.672;9.376;2023-04-25T13:05:42;98267.78;;;12.55;61.17
13312;BME280;34033;48.672;9.376;2023-04-25T13:08:26;98274.19;;;12.48;60.61
13312;BME280;34033;48.672;9.376;2023-04-25T13:10:57;98266.19;;;12.50;61.77
13312;BME280;34033;48.672;9.376;2023-04-25T13:13:40;98269.84;;;12.37;62.25
13312;BME280;34033;48.672;9.376;2023-04-25T13:19:35;98255.66;;;12.69;63.67
13312;BME280;34033;48.672;9.376;2023-04-25T13:22:10;98251.88;;;13.00;63.96
13312;BME280;34033;48.672;9.376;2023-04-25T13:24:44;98251.00;;;13.17;63.76
13312;BME280;34033;48.672;9.376;2023-04-25T13:30:45;98248.81;;;13.80;61.48
13312;BME280;34033;48.672;9.376;2023-04-25T13:33:28;98245.72;;;14.08;60.68
13312;BME280;34033;48.672;9.376;2023-04-25T13:36:05;98250.72;;;13.90;57.58
13312;BME280;34033;48.672;9.376;2023-04-25T13:39:18;98247.00;;;14.00;58.08
13312;BME280;34033;48.672;9.376;2023-04-25T13:41:55;98245.81;;;14.35;60.25
13312;BME280;34033;48.672;9.376;2023-04-25T13:44:51;98254.78;;;14.60;60.68
13312;BME280;34033;48.672;9.376;2023-04-25T13:47:30;98241.38;;;14.72;60.16
13312;BME280;34033;48.672;9.376;2023-04-25T13:49:56;98241.16;;;14.86;58.72
13312;BME280;34033;48.672;9.376;2023-04-25T13:52:33;98249.41;;;15.27;58.65
13312;BME280;34033;48.672;9.376;2023-04-25T13:55:10;98243.75;;;15.50;55.73
13312;BME280;34033;48.672;9.376;2023-04-25T13:58:01;98251.41;;;15.50;53.03
13312;BME280;34033;48.672;9.376;2023-04-25T14:00:42;98254.69;;;14.94;51.20
13312;BME280;34033;48.672;9.376;2023-04-25T14:06:38;98245.69;;;15.57;54.44
13312;BME280;34033;48.672;9.376;2023-04-25T14:09:18;98251.88;;;15.71;51.66
13312;BME280;34033;48.672;9.376;2023-04-25T14:11:56;98251.03;;;15.74;53.22
13312;BME280;34033;48.672;9.376;2023-04-25T14:14:50;98260.66;;;15.50;52.14
13312;BME280;34033;48.672;9.376;2023-04-25T14:17:34;98250.91;;;15.81;62.35
13312;BME280;34033;48.672;9.376;2023-04-25T14:20:09;98257.19;;;16.52;53.17
13312;BME280;34033;48.672;9.376;2023-04-25T14:23:08;98258.13;;;16.65;52.12
13312;BME280;34033;48.672;9.376;2023-04-25T14:25:56;98250.47;;;16.46;50.33
13312;BME280;34033;48.672;9.376;2023-04-25T14:28:33;98238.75;;;16.67;50.79
13312;BME280;34033;48.672;9.376;2023-04-25T14:31:13;98235.53;;;16.85;49.99
13312;BME280;34033;48.672;9.376;2023-04-25T14:39:29;98249.00;;;15.75;52.71
13312;BME280;34033;48.672;9.376;2023-04-25T14:41:54;98250.94;;;15.31;52.89
13312;BME280;34033;48.672;9.376;2023-04-25T14:44:19;98254.97;;;15.30;54.25
13312;BME280;34033;48.672;9.376;2023-04-25T14:46:45;98258.09;;;15.09;54.27
13312;BME280;34033;48.672;9.376;2023-04-25T14:49:10;98259.53;;;14.94;55.32
13312;BME280;34033;48.672;9.376;2023-04-25T14:51:36;98267.75;;;14.81;54.92
13312;BME280;34033;48.672;9.376;2023-04-25T14:54:01;98261.81;;;15.02;55.25
13312;BME280;34033;48.672;9.376;2023-04-25T14:56:27;98264.47;;;15.13;54.46
13312;BME280;34033;48.672;9.376;2023-04-25T14:58:52;98272.97;;;15.10;53.71
13312;BME280;34033;48.672;9.376;2023-04-25T15:01:17;98269.78;;;15.08;53.40
13312;BME280;34033;48.672;9.376;2023-04-25T15:03:45;98272.63;;;14.77;52.95
13312;BME280;34033;48.672;9.376;2023-04-25T15:06:10;98264.38;;;14.63;52.96
13312;BME280;34033;48.672;9.376;2023-04-25T15:08:36;98262.78;;;14.62;53.51
13312;BME280;34033;48.672;9.376;2023-04-25T15:11:01;98268.88;;;14.87;54.49
13312;BME280;34033;48.672;9.376;2023-04-25T15:13:28;98268.31;;;14.99;53.69
13312;BME280;34033;48.672;9.376;2023-04-25T15:15:53;98265.13;;;14.97;53.92
13312;BME280;34033;48.672;9.376;2023-04-25T15:18:22;98261.50;;;14.97;54.14
13312;BME280;34033;48.672;9.376;2023-04-25T15:20:51;98244.59;;;14.97;54.02
13312;BME280;34033;48.672;9.376;2023-04-25T15:23:17;98250.13;;;15.31;54.01
13312;BME280;34033;48.672;9.376;2023-04-25T15:25:43;98244.66;;;16.33;51.95
13312;BME280;34033;48.672;9.376;2023-04-25T15:28:09;98235.88;;;17.39;49.41
13312;BME280;34033;48.672;9.376;2023-04-25T15:30:34;98240.06;;;18.12;46.90
13312;BME280;34033;48.672;9.376;2023-04-25T15:33:00;98252.88;;;18.16;47.71
13312;BME280;34033;48.672;9.376;2023-04-25T15:35:25;98246.28;;;18.07;46.84
13312;BME280;34033;48.672;9.376;2023-04-25T15:37:51;98251.53;;;17.76;46.61
13312;BME280;34033;48.672;9.376;2023-04-25T15:40:17;98251.69;;;17.36;46.95
13312;BME280;34033;48.672;9.376;2023-04-25T15:42:47;98254.91;;;17.02;46.91
13312;BME280;34033;48.672;9.376;2023-04-25T15:45:16;98254.09;;;16.66;48.66
13312;BME280;34033;48.672;9.376;2023-04-25T15:47:42;98251.53;;;16.32;48.39
13312;BME280;34033;48.672;9.376;2023-04-25T15:50:09;98250.56;;;15.99;48.46
13312;BME280;34033;48.672;9.376;2023-04-25T15:52:36;98254.34;;;15.69;48.48
13312;BME280;34033;48.672;9.376;2023-04-25T15:55:03;98248.91;;;15.32;47.95
13312;BME280;34033;48.672;9.376;2023-04-25T15:57:29;98257.56;;;15.18;49.30
13312;BME280;34033;48.672;9.376;2023-04-25T15:59:55;98261.56;;;14.93;49.47
13312;BME280;34033;48.672;9.376;2023-04-25T16:02:20;98261.91;;;14.95;51.52
13312;BME280;34033;48.672;9.376;2023-04-25T16:04:46;98258.50;;;15.61;63.43
13312;BME280;34033;48.672;9.376;2023-04-25T16:07:12;98263.63;;;15.90;55.99
13312;BME280;34033;48.672;9.376;2023-04-25T16:09:38;98259.69;;;15.37;49.21
13312;BME280;34033;48.672;9.376;2023-04-25T16:12:04;98264.09;;;15.11;50.31
13312;BME280;34033;48.672;9.376;2023-04-25T16:14:30;98262.38;;;14.90;50.97
13312;BME280;34033;48.672;9.376;2023-04-25T16:16:56;98270.75;;;14.67;51.47
13312;BME280;34033;48.672;9.376;2023-04-25T16:19:22;98274.13;;;14.55;52.07
13312;BME280;34033;48.672;9.376;2023-04-25T16:21:47;98277.16;;;14.34;53.47
13312;BME280;34033;48.672;9.376;2023-04-25T16:24:12;98277.97;;;13.52;55.56
13312;BME280;34033;48.672;9.376;2023-04-25T16:26:38;98285.22;;;13.50;56.50
13312;BME280;34033;48.672;9.376;2023-04-25T16:29:05;98280.41;;;13.50;57.53
13312;BME280;34033;48.672;9.376;2023-04-25T16:31:32;98286.47;;;13.45;57.69
13312;BME280;34033;48.672;9.376;2023-04-25T16:33:58;98290.50;;;13.41;58.79
13312;BME280;34033;48.672;9.376;2023-04-25T16:36:23;98282.88;;;13.41;57.96
13312;BME280;34033;48.672;9.376;2023-04-25T16:38:49;98278.88;;;13.42;58.78
13312;BME280;34033;48.672;9.376;2023-04-25T16:41:14;98287.69;;;13.44;59.41
13312;BME280;34033;48.672;9.376;2023-04-25T16:43:40;98283.22;;;13.47;59.70
13312;BME280;34033;48.672;9.376;2023-04-25T16:46:05;98286.00;;;13.54;59.17
13312;BME280;34033;48.672;9.376;2023-04-25T16:48:31;98275.13;;;13.59;59.80
13312;BME280;34033;48.672;9.376;2023-04-25T16:50:56;98285.94;;;13.61;60.56
13312;BME280;34033;48.672;9.376;2023-04-25T16:53:22;98288.75;;;13.61;60.08
13312;BME280;34033;48.672;9.376;2023-04-25T16:55:47;98287.50;;;13.62;59.81
13312;BME280;34033;48.672;9.376;2023-04-25T16:58:13;98291.16;;;13.59;60.47
13312;BME280;34033;48.672;9.376;2023-04-25T17:00:39;98287.59;;;13.55;60.26
13312;BME280;34033;48.672;9.376;2023-04-25T17:03:04;98285.19;;;13.53;60.86
13312;BME280;34033;48.672;9.376;2023-04-25T17:05:29;98290.06;;;13.46;60.64
13312;BME280;34033;48.672;9.376;2023-04-25T17:07:55;98295.75;;;13.39;62.01
13312;BME280;34033;48.672;9.376;2023-04-25T17:10:21;98294.19;;;13.30;62.78
13312;BME280;34033;48.672;9.376;2023-04-25T17:12:46;98294.22;;;13.27;61.71
13312;BME280;34033;48.672;9.376;2023-04-25T17:15:12;98298.69;;;13.21;61.82
13312;BME280;34033;48.672;9.376;2023-04-25T17:17:37;98296.69;;;13.21;63.06
13312;BME280;34033;48.672;9.376;2023-04-25T17:20:04;98303.09;;;13.18;63.54
13312;BME280;34033;48.672;9.376;2023-04-25T17:22:32;98306.34;;;13.13;63.67
13312;BME280;34033;48.672;9.376;2023-04-25T17:24:58;98313.56;;;13.07;62.87
13312;BME280;34033;48.672;9.376;2023-04-25T17:27:23;98307.28;;;12.82;61.95
13312;BME280;34033;48.672;9.376;2023-04-25T17:29:48;98314.63;;;12.62;61.63
13312;BME280;34033;48.672;9.376;2023-04-25T17:32:14;98318.69;;;12.39;62.17
13312;BME280;34033;48.672;9.376;2023-04-25T17:34:39;98315.13;;;12.28;61.00
13312;BME280;34033;48.672;9.376;2023-04-25T17:37:05;98319.97;;;12.17;61.07
13312;BME280;34033;48.672;9.376;2023-04-25T17:39:31;98319.53;;;12.19;62.34
13312;BME280;34033;48.672;9.376;2023-04-25T17:41:57;98318.78;;;12.18;61.89
13312;BME280;34033;48.672;9.376;2023-04-25T17:44:23;98333.53;;;12.33;62.36
13312;BME280;34033;48.672;9.376;2023-04-25T17:46:49;98318.28;;;12.44;62.84
13312;BME280;34033;48.672;9.376;2023-04-25T17:49:15;98337.09;;;12.47;63.42
13312;BME280;34033;48.672;9.376;2023-04-25T17:51:40;98331.44;;;12.62;62.98
13312;BME280;34033;48.672;9.376;2023-04-25T17:54:05;98342.63;;;12.65;62.40
13312;BME280;34033;48.672;9.376;2023-04-25T17:56:35;98339.00;;;12.72;62.02
13312;BME280;34033;48.672;9.376;2023-04-25T17:59:02;98334.16;;;12.76;61.98
13312;BME280;34033;48.672;9.376;2023-04-25T18:01:27;98336.94;;;12.79;61.86
13312;BME280;34033;48.672;9.376;2023-04-25T18:03:52;98340.97;;;12.82;62.31
13312;BME280;34033;48.672;9.376;2023-04-25T18:06:18;98346.16;;;12.80;62.10
13312;BME280;34033;48.672;9.376;2023-04-25T18:08:43;98350.59;;;12.84;63.09
13312;BME280;34033;48.672;9.376;2023-04-25T18:11:08;98346.16;;;12.80;63.24
13312;BME280;34033;48.672;9.376;2023-04-25T18:13:34;98345.78;;;12.78;62.68
13312;BME280;34033;48.672;9.376;2023-04-25T18:16:01;98355.06;;;12.68;62.96
13312;BME280;34033;48.672;9.376;2023-04-25T18:18:26;98365.47;;;12.64;63.73
13312;BME280;34033;48.672;9.376;2023-04-25T18:20:58;98368.75;;;12.44;65.41
13312;BME280;34033;48.672;9.376;2023-04-25T18:23:23;98370.84;;;11.91;66.28
13312;BME280;34033;48.672;9.376;2023-04-25T18:25:50;98384.00;;;11.65;66.87
13312;BME280;34033;48.672;9.376;2023-04-25T18:28:17;98402.66;;;11.08;67.61
13312;BME280;34033;48.672;9.376;2023-04-25T18:30:42;98408.13;;;10.76;69.30
13312;BME280;34033;48.672;9.376;2023-04-25T18:33:08;98414.47;;;10.63;70.17
13312;BME280;34033;48.672;9.376;2023-04-25T18:35:34;98414.25;;;10.24;71.58
13312;BME280;34033;48.672;9.376;2023-04-25T18:37:59;98420.47;;;10.07;71.89
13312;BME280;34033;48.672;9.376;2023-04-25T18:40:24;98425.63;;;10.01;71.16
13312;BME280;34033;48.672;9.376;2023-04-25T18:42:50;98439.50;;;9.90;71.09
13312;BME280;34033;48.672;9.376;2023-04-25T18:45:16;98431.66;;;9.62;71.50
13312;BME280;34033;48.672;9.376;2023-04-25T18:47:41;98443.34;;;9.75;72.40
13312;BME280;34033;48.672;9.376;2023-04-25T18:50:07;98436.22;;;9.81;72.44
13312;BME280;34033;48.672;9.376;2023-04-25T18:52:33;98450.59;;;9.83;73.06
13312;BME280;34033;48.672;9.376;2023-04-25T18:54:58;98450.91;;;9.75;71.78
13312;BME280;34033;48.672;9.376;2023-04-25T18:57:24;98449.69;;;9.72;71.64
13312;BME280;34033;48.672;9.376;2023-04-25T18:59:50;98450.19;;;9.81;71.72
13312;BME280;34033;48.672;9.376;2023-04-25T19:02:16;98448.16;;;9.78;71.77
13312;BME280;34033;48.672;9.376;2023-04-25T19:04:42;98454.53;;;9.79;71.96
13312;BME280;34033;48.672;9.376;2023-04-25T19:07:07;98460.22;;;9.89;72.21
13312;BME280;34033;48.672;9.376;2023-04-25T19:09:33;98451.63;;;10.09;72.09
13312;BME280;34033;48.672;9.376;2023-04-25T19:11:59;98455.78;;;10.29;71.67
13312;BME280;34033;48.672;9.376;2023-04-25T19:14:24;98453.47;;;10.41;70.71
13312;BME280;34033;48.672;9.376;2023-04-25T19:16:50;98452.75;;;10.55;69.77
13312;BME280;34033;48.672;9.376;2023-04-25T19:19:16;98458.34;;;10.55;69.56
13312;BME280;34033;48.672;9.376;2023-04-25T19:21:41;98454.41;;;10.63;69.19
13312;BME280;34033;48.672;9.376;2023-04-25T19:24:07;98461.69;;;10.78;68.67
13312;BME280;34033;48.672;9.376;2023-04-25T19:26:33;98467.66;;;10.73;68.54
13312;BME280;34033;48.672;9.376;2023-04-25T19:29:16;98471.63;;;10.69;68.90
13312;BME280;34033;48.672;9.376;2023-04-25T19:31:43;98471.56;;;10.62;69.21
13312;BME280;34033;48.672;9.376;2023-04-25T19:34:09;98475.13;;;10.55;68.99
13312;BME280;34033;48.672;9.376;2023-04-25T19:36:36;98475.47;;;10.47;69.53
13312;BME280;34033;48.672;9.376;2023-04-25T19:39:02;98471.97;;;10.60;69.51
13312;BME280;34033;48.672;9.376;2023-04-25T19:41:29;98471.63;;;10.72;70.20
13312;BME280;34033;48.672;9.376;2023-04-25T19:43:55;98478.84;;;10.77;69.80
13312;BME280;34033;48.672;9.376;2023-04-25T19:46:20;98480.09;;;10.83;69.45
13312;BME280;34033;48.672;9.376;2023-04-25T19:48:46;98480.94;;;10.94;68.99
13312;BME280;34033;48.672;9.376;2023-04-25T19:51:12;98475.38;;;11.01;68.55
13312;BME280;34033;48.672;9.376;2023-04-25T19:53:38;98461.41;;;11.08;68.05
13312;BME280;34033;48.672;9.376;2023-04-25T19:56:03;98463.88;;;11.17;68.61